createdAt,value
2018-04-18T00:01:47.024Z,11.79
2018-04-18T00:04:13.646Z,11.74
2018-04-18T00:06:41.666Z,11.69
2018-04-18T00:09:08.281Z,11.92
2018-04-18T00:11:34.917Z,11.84
2018-04-18T00:14:01.421Z,11.75
2018-04-18T00:16:29.154Z,11.66
2018-04-18T00:18:55.838Z,11.39
2018-04-18T00:21:22.536Z,11.63
2018-04-18T00:23:49.282Z,11.29
2018-04-18T00:26:16.942Z,11.89
2018-04-18T00:28:43.655Z,11.85
2018-04-18T00:31:10.297Z,11.54
2018-04-18T00:33:36.990Z,11.39
2018-04-18T00:36:03.481Z,11.37
2018-04-18T00:38:37.727Z,11.17
2018-04-18T00:41:04.350Z,11.17
2018-04-18T00:43:31.068Z,11.26
2018-04-18T00:45:57.846Z,11.26
2018-04-18T00:48:28.571Z,11.24
2018-04-18T00:50:55.262Z,11.29
2018-04-18T00:53:21.986Z,11.34
2018-04-18T00:55:48.495Z,11.13
2018-04-18T00:58:15.158Z,11.38
2018-04-18T01:00:41.857Z,11.15
2018-04-18T01:03:08.566Z,11.14
2018-04-18T01:05:35.206Z,10.96
2018-04-18T01:08:05.094Z,11.06
2018-04-18T01:10:31.678Z,10.80
2018-04-18T01:12:58.338Z,10.95
2018-04-18T01:15:24.941Z,10.89
2018-04-18T01:17:51.736Z,10.76
2018-04-18T01:20:18.342Z,10.71
2018-04-18T01:22:44.946Z,10.87
2018-04-18T01:25:11.504Z,10.52
2018-04-18T01:27:41.574Z,10.58
2018-04-18T01:30:08.185Z,10.67
2018-04-18T01:32:34.839Z,10.71
2018-04-18T01:35:01.377Z,10.76
2018-04-18T01:37:31.877Z,10.68
2018-04-18T01:39:58.521Z,10.64
2018-04-18T01:42:25.240Z,10.50
2018-04-18T01:44:52.008Z,10.49
2018-04-18T01:47:22.667Z,10.49
2018-04-18T01:49:49.201Z,10.29
2018-04-18T01:52:15.812Z,10.28
2018-04-18T01:54:42.532Z,10.25
2018-04-18T01:57:16.596Z,10.13
2018-04-18T01:59:43.240Z,10.27
2018-04-18T02:02:09.721Z,10.19
2018-04-18T02:04:36.488Z,10.17
2018-04-18T02:07:06.850Z,9.94
2018-04-18T02:09:33.485Z,10.02
2018-04-18T02:12:00.064Z,10.04
2018-04-18T02:14:26.628Z,10.11
2018-04-18T02:17:00.397Z,10.00
2018-04-18T02:19:27.097Z,9.99
2018-04-18T02:21:53.801Z,10.05
2018-04-18T02:24:20.429Z,10.34
2018-04-18T02:26:53.833Z,10.17
2018-04-18T02:29:20.595Z,10.16
2018-04-18T02:31:47.261Z,10.23
2018-04-18T02:34:13.977Z,10.11
2018-04-18T02:36:44.013Z,9.91
2018-04-18T02:39:10.582Z,9.75
2018-04-18T02:41:37.387Z,9.91
2018-04-18T02:44:04.105Z,9.77
2018-04-18T02:46:38.039Z,9.57
2018-04-18T02:49:04.709Z,9.76
2018-04-18T02:51:31.428Z,9.82
2018-04-18T02:53:58.030Z,9.76
2018-04-18T02:56:28.654Z,9.67
2018-04-18T02:58:55.356Z,9.67
2018-04-18T03:01:21.960Z,9.71
2018-04-18T03:03:48.555Z,9.85
2018-04-18T03:06:16.257Z,9.82
2018-04-18T03:08:42.958Z,9.84
2018-04-18T03:11:09.574Z,9.86
2018-04-18T03:13:36.176Z,9.73
2018-04-18T03:16:13.983Z,9.63
2018-04-18T03:18:40.669Z,9.63
2018-04-18T03:21:07.234Z,9.35
2018-04-18T03:23:33.853Z,9.57
2018-04-18T03:26:04.366Z,9.69
2018-04-18T03:28:30.986Z,9.69
2018-04-18T03:30:57.747Z,9.63
2018-04-18T03:33:24.394Z,9.64
2018-04-18T03:35:54.240Z,9.71
2018-04-18T03:38:20.862Z,9.65
2018-04-18T03:40:47.402Z,9.74
2018-04-18T03:43:13.990Z,9.80
2018-04-18T03:45:40.709Z,9.85
2018-04-18T03:48:07.477Z,9.64
2018-04-18T03:50:34.125Z,9.65
2018-04-18T03:53:01.158Z,9.66
2018-04-18T03:55:27.711Z,9.68
2018-04-18T03:57:57.985Z,9.76
2018-04-18T04:00:24.491Z,9.66
2018-04-18T04:02:51.098Z,9.60
2018-04-18T04:05:17.746Z,9.50
2018-04-18T04:07:48.006Z,9.50
2018-04-18T04:10:15.615Z,9.47
2018-04-18T04:12:42.238Z,9.43
2018-04-18T04:15:08.843Z,9.56
2018-04-18T04:17:44.562Z,9.52
2018-04-18T04:20:23.275Z,9.74
2018-04-18T04:23:01.771Z,9.73
2018-04-18T04:25:28.412Z,9.97
2018-04-18T04:27:56.328Z,9.97
2018-04-18T04:30:23.465Z,10.05
2018-04-18T04:32:50.062Z,10.11
2018-04-18T04:35:16.641Z,9.94
2018-04-18T04:37:53.430Z,10.00
2018-04-18T04:40:20.153Z,10.04
2018-04-18T04:42:46.910Z,9.83
2018-04-18T04:45:13.589Z,10.04
2018-04-18T04:47:43.751Z,10.09
2018-04-18T04:50:10.367Z,10.36
2018-04-18T04:52:37.070Z,10.25
2018-04-18T04:55:03.713Z,10.35
2018-04-18T04:57:37.565Z,10.16
2018-04-18T05:00:04.142Z,10.12
2018-04-18T05:02:30.779Z,10.37
2018-04-18T05:04:57.322Z,10.77
2018-04-18T05:07:34.649Z,10.51
2018-04-18T05:10:01.346Z,10.77
2018-04-18T05:12:28.142Z,10.72
2018-04-18T05:14:54.798Z,10.73
2018-04-18T05:17:24.960Z,10.78
2018-04-18T05:19:51.514Z,10.99
2018-04-18T05:22:18.202Z,11.13
2018-04-18T05:24:44.928Z,11.01
2018-04-18T05:27:12.811Z,11.22
2018-04-18T05:29:39.505Z,11.48
2018-04-18T05:32:06.207Z,11.32
2018-04-18T05:34:32.781Z,11.84
2018-04-18T05:37:13.065Z,11.79
2018-04-18T05:39:39.806Z,11.79
2018-04-18T05:42:06.542Z,11.71
2018-04-18T05:44:33.178Z,12.04
2018-04-18T05:47:03.382Z,12.61
2018-04-18T05:49:30.086Z,12.50
2018-04-18T05:51:56.820Z,12.51
2018-04-18T05:54:23.473Z,12.53
2018-04-18T05:56:53.437Z,12.83
2018-04-18T05:59:19.978Z,12.80
2018-04-18T06:01:46.657Z,13.24
2018-04-18T06:04:13.419Z,13.19
2018-04-18T06:06:45.687Z,13.13
2018-04-18T06:09:12.367Z,13.58
2018-04-18T06:11:39.022Z,13.24
2018-04-18T06:14:05.649Z,14.01
2018-04-18T06:16:35.838Z,13.98
2018-04-18T06:19:02.402Z,14.44
2018-04-18T06:21:28.982Z,14.31
2018-04-18T06:23:55.664Z,14.73
2018-04-18T06:26:25.628Z,14.80
2018-04-18T06:28:52.405Z,14.76
2018-04-18T06:31:19.026Z,15.41
2018-04-18T06:33:45.620Z,14.60
2018-04-18T06:36:15.361Z,15.37
2018-04-18T06:38:42.025Z,14.66
2018-04-18T06:41:08.702Z,14.79
2018-04-18T06:43:35.273Z,15.43
2018-04-18T06:46:05.257Z,14.82
2018-04-18T06:48:31.924Z,15.29
2018-04-18T06:50:58.668Z,15.25
2018-04-18T06:53:25.403Z,15.86
2018-04-18T06:56:10.910Z,15.55
2018-04-18T06:58:37.562Z,15.03
2018-04-18T07:01:04.215Z,14.93
2018-04-18T07:03:30.733Z,15.32
2018-04-18T07:06:00.524Z,15.55
2018-04-18T07:08:27.223Z,15.82
2018-04-18T07:10:53.837Z,15.99
2018-04-18T07:13:20.487Z,16.24
2018-04-18T07:15:51.074Z,15.78
2018-04-18T07:18:17.719Z,16.17
2018-04-18T07:20:44.320Z,16.25
2018-04-18T07:23:11.010Z,16.65
2018-04-18T07:25:49.367Z,16.76
2018-04-18T07:28:16.104Z,17.19
2018-04-18T07:30:42.829Z,17.45
2018-04-18T07:33:09.393Z,16.31
2018-04-18T07:35:39.125Z,16.38
2018-04-18T07:38:05.694Z,17.03
2018-04-18T07:40:32.306Z,17.71
2018-04-18T07:42:58.949Z,17.70
2018-04-18T07:45:36.144Z,17.40
2018-04-18T07:48:02.793Z,17.23
2018-04-18T07:50:29.458Z,18.46
2018-04-18T07:52:55.949Z,18.08
2018-04-18T07:55:23.737Z,18.65
2018-04-18T07:57:50.388Z,19.02
2018-04-18T08:00:17.103Z,18.87
2018-04-18T08:02:43.743Z,19.01
2018-04-18T08:05:13.582Z,18.33
2018-04-18T08:07:40.238Z,19.30
2018-04-18T08:10:06.870Z,18.15
2018-04-18T08:12:33.573Z,18.78
2018-04-18T08:15:00.325Z,18.66
2018-04-18T08:17:26.921Z,18.95
2018-04-18T08:19:53.381Z,19.09
2018-04-18T08:22:19.974Z,19.77
2018-04-18T08:24:46.542Z,19.40
2018-04-18T08:27:18.149Z,20.25
2018-04-18T08:29:44.793Z,20.38
2018-04-18T08:32:11.343Z,20.03
2018-04-18T08:34:38.032Z,19.76
2018-04-18T08:37:10.034Z,19.33
2018-04-18T08:39:36.576Z,18.93
2018-04-18T08:42:03.180Z,18.94
2018-04-18T08:44:29.904Z,19.56
2018-04-18T08:47:03.899Z,20.22
2018-04-18T08:49:30.610Z,20.97
2018-04-18T08:51:57.151Z,21.44
2018-04-18T08:54:23.762Z,21.67
2018-04-18T08:56:50.505Z,22.32
2018-04-18T08:59:17.210Z,21.64
2018-04-18T09:01:43.852Z,21.85
2018-04-18T09:04:10.509Z,21.84
2018-04-18T09:06:42.629Z,22.00
2018-04-18T09:09:09.270Z,22.14
2018-04-18T09:11:35.929Z,21.84
2018-04-18T09:14:02.520Z,21.73
2018-04-18T09:16:35.729Z,22.52
2018-04-18T09:19:02.484Z,22.52
2018-04-18T09:21:29.549Z,22.95
2018-04-18T09:23:56.109Z,22.80
2018-04-18T09:26:29.397Z,22.41
2018-04-18T09:28:56.062Z,22.22
2018-04-18T09:31:22.710Z,21.45
2018-04-18T09:33:49.274Z,21.59
2018-04-18T09:36:26.505Z,21.58
2018-04-18T09:38:53.200Z,22.07
2018-04-18T09:41:19.779Z,22.59
2018-04-18T09:43:46.426Z,22.76
2018-04-18T09:46:20.851Z,22.43
2018-04-18T09:48:47.453Z,21.94
2018-04-18T09:51:14.008Z,21.90
2018-04-18T09:53:40.746Z,21.43
2018-04-18T09:56:11.463Z,21.70
2018-04-18T09:58:37.986Z,21.44
2018-04-18T10:01:04.572Z,21.67
2018-04-18T10:03:31.145Z,21.63
2018-04-18T10:06:03.738Z,21.24
2018-04-18T10:08:30.450Z,22.08
2018-04-18T10:10:57.148Z,21.71
2018-04-18T10:13:23.800Z,21.92
2018-04-18T10:15:56.876Z,21.68
2018-04-18T10:18:23.588Z,21.80
2018-04-18T10:20:50.187Z,22.30
2018-04-18T10:23:16.918Z,22.12
2018-04-18T10:25:48.410Z,21.93
2018-04-18T10:28:15.162Z,22.34
2018-04-18T10:30:41.891Z,20.89
2018-04-18T10:33:08.368Z,21.09
2018-04-18T10:35:42.033Z,21.14
2018-04-18T10:38:08.787Z,21.34
2018-04-18T10:40:35.325Z,20.95
2018-04-18T10:43:01.971Z,21.27
2018-04-18T10:45:35.341Z,21.21
2018-04-18T10:48:01.924Z,21.72
2018-04-18T10:50:28.482Z,21.47
2018-04-18T10:52:55.110Z,21.35
2018-04-18T10:55:31.694Z,20.04
2018-04-18T10:57:58.413Z,19.66
2018-04-18T11:00:25.153Z,19.01
2018-04-18T11:02:51.697Z,19.19
2018-04-18T11:05:23.213Z,19.55
2018-04-18T11:07:49.834Z,20.26
2018-04-18T11:10:16.906Z,20.50
2018-04-18T11:12:43.671Z,21.25
2018-04-18T11:15:10.342Z,21.41
2018-04-18T11:17:36.917Z,20.81
2018-04-18T11:20:03.592Z,21.69
2018-04-18T11:22:30.142Z,21.89
2018-04-18T11:25:04.012Z,21.26
2018-04-18T11:27:30.868Z,21.17
2018-04-18T11:29:57.480Z,20.70
2018-04-18T11:32:24.189Z,20.86
2018-04-18T11:35:09.113Z,20.99
2018-04-18T11:37:35.686Z,21.41
2018-04-18T11:40:02.359Z,22.42
2018-04-18T11:42:29.104Z,20.92
2018-04-18T11:44:59.082Z,21.93
2018-04-18T11:47:25.781Z,21.36
2018-04-18T11:49:52.998Z,21.45
2018-04-18T11:52:19.635Z,20.53
2018-04-18T11:54:47.238Z,22.76
2018-04-18T11:57:13.890Z,21.27
2018-04-18T11:59:40.618Z,21.10
2018-04-18T12:02:07.250Z,21.43
2018-04-18T12:04:33.909Z,20.14
2018-04-18T12:07:00.593Z,20.53
2018-04-18T12:09:27.270Z,22.55
2018-04-18T12:11:53.950Z,21.69
2018-04-18T12:14:20.465Z,21.39
2018-04-18T12:16:47.178Z,21.66
2018-04-18T12:19:13.845Z,21.51
2018-04-18T12:21:40.521Z,21.94
2018-04-18T12:24:07.260Z,22.07
2018-04-18T12:26:43.998Z,22.05
2018-04-18T12:29:10.521Z,21.39
2018-04-18T12:31:37.208Z,21.54
2018-04-18T12:34:03.802Z,21.77
2018-04-18T12:36:33.573Z,21.13
2018-04-18T12:39:00.214Z,21.36
2018-04-18T12:41:26.814Z,21.64
2018-04-18T12:43:53.386Z,22.81
2018-04-18T12:46:24.980Z,21.08
2018-04-18T12:48:51.707Z,21.68
2018-04-18T12:51:18.422Z,20.03
2018-04-18T12:53:45.145Z,20.00
2018-04-18T12:56:26.470Z,20.00
2018-04-18T12:58:53.102Z,21.23
2018-04-18T13:01:19.703Z,21.25
2018-04-18T13:03:46.354Z,20.99
2018-04-18T13:09:06.389Z,21.12
2018-04-18T13:11:33.004Z,21.47
2018-04-18T13:13:59.593Z,21.63
2018-04-18T13:16:27.303Z,21.86
2018-04-18T13:18:53.975Z,21.43
2018-04-18T13:21:20.569Z,22.09
2018-04-18T13:23:47.209Z,20.48
2018-04-18T13:26:26.936Z,21.29
2018-04-18T13:28:53.577Z,21.68
2018-04-18T13:31:20.287Z,21.45
2018-04-18T13:33:47.341Z,22.01
2018-04-18T13:36:25.242Z,22.42
2018-04-18T13:38:51.908Z,21.11
2018-04-18T13:41:18.484Z,21.29
2018-04-18T13:43:45.026Z,20.34
2018-04-18T13:46:15.525Z,21.13
2018-04-18T13:48:42.019Z,21.04
2018-04-18T13:51:09.281Z,20.43
2018-04-18T13:53:35.990Z,21.69
2018-04-18T13:56:09.225Z,21.82
2018-04-18T13:58:35.942Z,21.57
2018-04-18T14:01:02.463Z,22.34
2018-04-18T14:03:29.060Z,21.05
2018-04-18T14:06:16.326Z,21.65
2018-04-18T14:08:43.451Z,21.63
2018-04-18T14:11:10.174Z,19.82
2018-04-18T14:13:36.839Z,20.13
2018-04-18T14:16:13.719Z,19.90
2018-04-18T14:18:40.442Z,19.89
2018-04-18T14:21:06.961Z,20.44
2018-04-18T14:23:33.607Z,19.77
2018-04-18T14:26:01.905Z,21.57
2018-04-18T14:28:28.578Z,20.80
2018-04-18T14:30:55.285Z,20.29
2018-04-18T14:33:21.925Z,20.24
2018-04-18T14:35:49.596Z,20.31
2018-04-18T14:38:16.233Z,20.83
2018-04-18T14:40:42.976Z,20.04
2018-04-18T14:43:09.617Z,21.42
2018-04-18T14:45:42.726Z,19.87
2018-04-18T14:48:09.445Z,21.10
2018-04-18T14:50:35.992Z,20.98
2018-04-18T14:53:02.642Z,20.03
2018-04-18T14:55:30.437Z,20.42
2018-04-18T14:57:57.127Z,19.84
2018-04-18T15:00:23.771Z,20.92
2018-04-18T15:02:50.456Z,20.44
2018-04-18T15:05:23.174Z,19.28
2018-04-18T15:07:49.613Z,20.06
2018-04-18T15:10:16.253Z,19.27
2018-04-18T15:12:42.918Z,21.08
2018-04-18T15:15:29.388Z,20.66
2018-04-18T15:18:01.986Z,20.75
2018-04-18T15:20:28.713Z,20.78
2018-04-18T15:22:55.370Z,21.00
2018-04-18T15:25:34.309Z,21.42
2018-04-18T15:28:01.126Z,21.30
2018-04-18T15:30:27.711Z,22.42
2018-04-18T15:32:54.432Z,20.44
2018-04-18T15:35:29.302Z,20.37
2018-04-18T15:37:55.907Z,20.38
2018-04-18T15:40:22.530Z,20.55
2018-04-18T15:42:49.159Z,19.66
2018-04-18T15:45:19.439Z,19.76
2018-04-18T15:47:46.189Z,19.03
2018-04-18T15:50:12.899Z,18.08
2018-04-18T15:52:39.447Z,19.09
2018-04-18T15:55:11.802Z,19.00
2018-04-18T15:57:38.459Z,18.37
2018-04-18T16:00:05.076Z,18.50
2018-04-18T16:02:31.684Z,19.24
2018-04-18T16:05:03.310Z,18.27
2018-04-18T16:07:29.983Z,18.89
2018-04-18T16:09:56.703Z,19.13
2018-04-18T16:12:23.226Z,18.01
2018-04-18T16:14:53.355Z,17.94
2018-04-18T16:17:20.081Z,17.92
2018-04-18T16:19:46.775Z,17.90
2018-04-18T16:22:13.439Z,16.84
2018-04-18T16:24:41.176Z,16.47
2018-04-18T16:27:07.831Z,17.33
2018-04-18T16:29:42.358Z,17.42
2018-04-18T16:32:08.817Z,17.21
2018-04-18T16:34:39.118Z,16.82
2018-04-18T16:37:05.817Z,16.92
2018-04-18T16:39:32.477Z,16.27
2018-04-18T16:41:59.181Z,16.37
2018-04-18T16:44:26.824Z,16.18
2018-04-18T16:46:53.483Z,15.11
2018-04-18T16:49:20.129Z,15.04
2018-04-18T16:51:46.763Z,15.84
2018-04-18T16:54:14.250Z,15.82
2018-04-18T16:56:40.899Z,15.86
2018-04-18T16:59:07.466Z,15.67
2018-04-18T17:01:34.052Z,15.21
2018-04-18T17:04:11.261Z,15.24
2018-04-18T17:06:38.083Z,15.29
2018-04-18T17:09:04.607Z,15.41
2018-04-18T17:11:31.193Z,15.34
2018-04-18T17:13:59.007Z,15.07
2018-04-18T17:16:25.932Z,14.71
2018-04-18T17:18:52.519Z,14.77
2018-04-18T17:21:19.206Z,14.80
2018-04-18T17:23:47.141Z,14.79
2018-04-18T17:26:13.843Z,14.70
2018-04-18T17:28:40.491Z,14.44
2018-04-18T17:31:07.201Z,14.56
2018-04-18T17:33:33.885Z,14.56
2018-04-18T17:36:00.476Z,14.58
2018-04-18T17:38:27.135Z,14.66
2018-04-18T17:40:53.887Z,14.46
2018-04-18T17:43:20.519Z,14.46
2018-04-18T17:45:51.040Z,13.77
2018-04-18T17:48:17.730Z,13.64
2018-04-18T17:50:44.526Z,13.55
2018-04-18T17:53:11.235Z,13.40
2018-04-18T17:55:39.041Z,13.44
2018-04-18T17:58:05.623Z,13.43
2018-04-18T18:00:32.258Z,13.66
2018-04-18T18:02:58.911Z,13.74
2018-04-18T18:05:29.249Z,13.93
2018-04-18T18:07:56.285Z,14.13
2018-04-18T18:10:22.946Z,14.22
2018-04-18T18:12:49.608Z,14.03
2018-04-18T18:15:22.282Z,13.44
2018-04-18T18:17:48.949Z,13.16
2018-04-18T18:20:15.850Z,13.56
2018-04-18T18:22:42.569Z,14.11
2018-04-18T18:25:13.640Z,13.95
2018-04-18T18:27:40.343Z,13.76
2018-04-18T18:30:07.039Z,13.47
2018-04-18T18:32:34.710Z,13.52
2018-04-18T18:35:01.275Z,12.88
2018-04-18T18:37:27.991Z,12.82
2018-04-18T18:39:54.746Z,13.43
2018-04-18T18:42:21.977Z,13.13
2018-04-18T18:44:55.703Z,13.19
2018-04-18T18:47:22.427Z,13.29
2018-04-18T18:49:49.138Z,13.06
2018-04-18T18:52:15.681Z,13.19
2018-04-18T18:55:03.564Z,13.94
2018-04-18T18:57:30.845Z,13.91
2018-04-18T18:59:57.545Z,13.69
2018-04-18T19:02:24.054Z,13.82
2018-04-18T19:04:52.420Z,13.71
2018-04-18T19:07:19.179Z,13.60
2018-04-18T19:09:45.806Z,13.61
2018-04-18T19:12:12.504Z,13.51
2018-04-18T19:14:40.330Z,13.80
2018-04-18T19:17:06.915Z,13.67
2018-04-18T19:19:33.953Z,13.66
2018-04-18T19:22:00.538Z,13.72
2018-04-18T19:24:27.382Z,13.74
2018-04-18T19:26:54.165Z,13.35
2018-04-18T19:29:20.914Z,13.05
2018-04-18T19:31:47.803Z,13.00
2018-04-18T19:34:18.189Z,13.54
2018-04-18T19:36:44.903Z,13.54
2018-04-18T19:39:11.729Z,13.30
2018-04-18T19:41:38.490Z,13.35
2018-04-18T19:44:06.213Z,13.38
2018-04-18T19:46:32.794Z,13.30
2018-04-18T19:48:59.438Z,13.43
2018-04-18T19:51:26.078Z,13.21
2018-04-18T19:53:58.178Z,13.30
2018-04-18T19:56:24.889Z,13.25
2018-04-18T19:58:51.413Z,13.08
2018-04-18T20:01:18.186Z,13.24
2018-04-18T20:03:47.962Z,13.80
2018-04-18T20:06:14.671Z,13.81
2018-04-18T20:08:41.676Z,13.66
2018-04-18T20:11:08.535Z,13.76
2018-04-18T20:13:39.182Z,13.85
2018-04-18T20:16:05.914Z,14.11
2018-04-18T20:18:32.561Z,14.16
2018-04-18T20:20:59.142Z,14.37
2018-04-18T20:23:30.498Z,13.98
2018-04-18T20:25:57.143Z,13.61
2018-04-18T20:28:23.815Z,13.67
2018-04-18T20:30:50.472Z,13.91
2018-04-18T20:33:24.310Z,14.18
2018-04-18T20:35:50.825Z,14.23
2018-04-18T20:38:17.529Z,14.17
2018-04-18T20:40:44.139Z,14.35
2018-04-18T20:43:10.594Z,14.43
2018-04-18T20:45:37.232Z,14.40
2018-04-18T20:48:03.866Z,14.14
2018-04-18T20:50:30.518Z,13.96
2018-04-18T20:52:57.182Z,13.83
2018-04-18T20:55:31.274Z,13.80
2018-04-18T20:57:57.907Z,13.93
2018-04-18T21:00:24.612Z,14.01
2018-04-18T21:02:51.728Z,13.99
2018-04-18T21:05:28.863Z,13.77
2018-04-18T21:07:55.481Z,13.87
2018-04-18T21:10:21.985Z,14.16
2018-04-18T21:12:48.577Z,14.16
2018-04-18T21:15:21.902Z,14.12
2018-04-18T21:17:48.623Z,13.92
2018-04-18T21:20:15.314Z,13.99
2018-04-18T21:22:41.953Z,13.94
2018-04-18T21:25:13.317Z,13.89
2018-04-18T21:27:39.842Z,13.82
2018-04-18T21:30:06.337Z,13.96
2018-04-18T21:32:32.921Z,13.40
2018-04-18T21:35:00.587Z,13.44
2018-04-18T21:37:27.326Z,13.13
2018-04-18T21:39:54.034Z,13.13
2018-04-18T21:42:20.622Z,12.67
2018-04-18T21:44:48.351Z,12.60
2018-04-18T21:47:15.074Z,12.45
2018-04-18T21:49:41.840Z,12.71
2018-04-18T21:52:08.480Z,12.43
2018-04-18T21:54:36.384Z,12.51
2018-04-18T21:57:03.125Z,12.52
2018-04-18T21:59:29.855Z,12.34
2018-04-18T22:01:56.577Z,12.44
2018-04-18T22:04:31.074Z,12.65
2018-04-18T22:06:57.789Z,12.61
2018-04-18T22:09:24.585Z,12.58
2018-04-18T22:11:51.158Z,12.73
2018-04-18T22:14:18.856Z,12.80
2018-04-18T22:16:45.698Z,12.78
2018-04-18T22:19:12.253Z,12.79
2018-04-18T22:21:38.945Z,12.66
2018-04-18T22:24:12.624Z,13.17
2018-04-18T22:26:39.316Z,13.14
2018-04-18T22:29:05.940Z,13.23
2018-04-18T22:31:32.619Z,13.32
2018-04-18T22:34:05.412Z,13.28
2018-04-18T22:36:32.185Z,13.34
2018-04-18T22:38:58.857Z,13.53
2018-04-18T22:41:25.576Z,13.69
2018-04-18T22:44:02.694Z,13.79
2018-04-18T22:46:29.429Z,13.80
2018-04-18T22:48:56.039Z,13.86
2018-04-18T22:51:22.485Z,13.94
2018-04-18T22:53:53.274Z,13.93
2018-04-18T22:56:20.013Z,13.80
2018-04-18T22:58:46.752Z,13.86
2018-04-18T23:01:13.430Z,14.05
2018-04-18T23:03:50.709Z,13.93
2018-04-18T23:06:17.355Z,13.80
2018-04-18T23:08:44.016Z,13.55
2018-04-18T23:11:11.023Z,13.36
2018-04-18T23:13:44.940Z,13.13
2018-04-18T23:16:11.496Z,13.19
2018-04-18T23:18:38.292Z,13.11
2018-04-18T23:21:04.920Z,12.99
2018-04-18T23:23:37.364Z,12.98
2018-04-18T23:26:04.095Z,13.04
2018-04-18T23:28:30.764Z,12.89
2018-04-18T23:30:57.391Z,12.95
2018-04-18T23:33:27.425Z,13.05
2018-04-18T23:35:53.952Z,13.00
2018-04-18T23:38:21.310Z,12.86
2018-04-18T23:40:47.939Z,12.90
2018-04-18T23:43:27.720Z,12.66
2018-04-18T23:45:54.433Z,12.70
2018-04-18T23:48:20.937Z,12.68
2018-04-18T23:50:47.668Z,12.52
2018-04-18T23:53:18.232Z,12.73
2018-04-18T23:55:44.887Z,12.56
2018-04-18T23:58:11.658Z,12.45
